Flight Track Log - Related Links

Times and Time Zones

All times are in EST time to prevent confusion due to time zone crossing. See the SKW6492 flight status page for this flight to view local times or setup timezone preferences in your user account.

Time Position Orientation Groundspeed Altitude Reporting Facility
EST Latitude Longitude Course Direction KTS MPH feet Rate Location/Type
Sun 11:05:46 PM 39.9167 -104.6833 346° North 185 213 6,800  Level Denver TRACON
Sun 11:06:46 PM 39.9833 -104.6667 11° North 238 274 8,800 1,800 Climbing Denver TRACON
Sun 11:07:46 PM 40.0500 -104.6667 360° North 281 323 10,400 2,113 Climbing Denver TRACON
Sun 11:09:08 PM 40.1636 -104.6847 353° North 280 322 13,800 2,056 Climbing Denver Center
Sun 11:10:00 PM 40.3022 -104.8123 347° North  Level FlightAware Approximate
Sun 11:10:09 PM 40.2406 -104.7058 348° North 282 325 15,300  Level Denver Center
Sun 11:11:00 PM 40.3927 -104.8420 346° North  Level FlightAware Approximate
Sun 11:11:11 PM 40.3219 -104.7281 348° North 297 342 17,000  Level Denver Center
Sun 11:12:12 PM 40.4072 -104.7508 349° North 312 359 18,200 1,377 Climbing Denver Center
Sun 11:13:13 PM 40.4994 -104.7753 349° North 314 361 19,800 1,377 Climbing Denver Center
Sun 11:14:14 PM 40.5814 -104.7953 349° North 324 373 21,000 1,279 Climbing Denver Center
Sun 11:15:15 PM 40.6633 -104.8172 349° North 316 364 22,400 1,475 Climbing Denver Center
Sun 11:16:16 PM 40.7556 -104.8758 334° Northwest 313 360 24,000 1,317 Climbing Denver Center
Sun 11:17:18 PM 40.8219 -104.9408 323° Northwest 301 346 25,100 780 Climbing Denver Center
Sun 11:18:19 PM 40.8778 -104.9986 322° Northwest 312 359 25,600 590 Climbing Denver Center
Sun 11:19:20 PM 40.9636 -105.0861 322° Northwest 324 373 26,300 639 Climbing Denver Center
Sun 11:20:21 PM 41.0322 -105.1558 323° Northwest 331 381 26,900 639 Climbing Denver Center
Sun 11:21:22 PM 41.1144 -105.2400 322° Northwest 334 384 27,600 590 Climbing Denver Center
Sun 11:22:23 PM 41.1856 -105.3147 322° Northwest 339 390 28,100 541 Climbing Denver Center
Sun 11:23:24 PM 41.2572 -105.3883 322° Northwest 340 391 28,700 639 Climbing Denver Center
Sun 11:24:25 PM 41.3400 -105.4744 322° Northwest 339 390 29,400 639 Climbing Denver Center
Sun 11:25:26 PM 41.4114 -105.5494 322° Northwest 341 392 30,000 590 Climbing Denver Center
Sun 11:26:27 PM 41.4931 -105.6353 322° Northwest 336 387 30,600 590 Climbing Denver Center
Sun 11:27:28 PM 41.5628 -105.7097 321° Northwest 334 384 31,200 590 Climbing Denver Center
Sun 11:28:29 PM 41.6314 -105.7811 322° Northwest 330 380 31,800 393 Climbing Denver Center
Sun 11:29:30 PM 41.7125 -105.8672 322° Northwest 332 382 32,000 98 Climbing Denver Center
Sun 11:30:31 PM 41.7819 -105.9406 322° Northwest 332 382 32,000  Level Denver Center
Sun 11:31:32 PM 41.8486 -106.0122 321° Northwest 326 375 32,000  Level Denver Center
Sun 11:32:33 PM 41.9275 -106.0956 322° Northwest 323 372 32,000  Level Denver Center
Sun 11:33:34 PM 41.9936 -106.1664 321° Northwest 320 368 32,000  Level Denver Center
Sun 11:34:35 PM 42.0597 -106.2356 322° Northwest 316 364 32,000  Level Denver Center
Sun 11:35:36 PM 42.1339 -106.3169 321° Northwest 309 356 32,000  Level Denver Center
Sun 11:36:37 PM 42.1992 -106.3872 321° Northwest 312 359 32,000  Level Denver Center
Sun 11:37:38 PM 42.2644 -106.4575 321° Northwest 313 360 32,000  Level Denver Center
Sun 11:38:38 PM 42.3383 -106.5386 321° Northwest 314 361 32,000  Level Denver Center
Sun 11:39:39 PM 42.4056 -106.6119 321° Northwest 315 362 32,000  Level Denver Center
Sun 11:40:40 PM 42.4717 -106.6828 322° Northwest 316 364 32,000  Level Denver Center
Sun 11:41:41 PM 42.5478 -106.7672 321° Northwest 317 365 32,000  Level Denver Center
Sun 11:42:42 PM 42.6122 -106.8378 321° Northwest 311 358 32,000  Level Denver Center
Sun 11:43:43 PM 42.6783 -106.9108 321° Northwest 318 366 32,000  Level Denver Center
Sun 11:44:44 PM 42.7544 -106.9947 321° Northwest 315 362 32,000  Level Denver Center
Sun 11:45:45 PM 42.8214 -107.0672 322° Northwest 320 368 32,000  Level Denver Center
Sun 11:46:42 PM 42.8836 -107.1378 320° Northwest 319 367 32,000  Level Salt Lake Center
Sun 11:47:43 PM 42.9508 -107.2142 320° Northwest 319 367 32,000  Level Salt Lake Center
Sun 11:48:44 PM 43.0192 -107.2897 321° Northwest 316 364 32,000  Level Salt Lake Center
Sun 11:49:45 PM 43.0878 -107.3672 320° Northwest 320 368 32,000  Level Salt Lake Center
Sun 11:50:46 PM 43.1725 -107.4558 323° Northwest 321 369 32,000  Level Salt Lake Center
Sun 11:51:47 PM 43.2494 -107.5189 329° Northwest 323 372 32,000  Level Salt Lake Center
Sun 11:52:48 PM 43.3253 -107.5844 328° Northwest 321 369 32,000  Level Salt Lake Center
Sun 11:53:49 PM 43.4031 -107.6489 329° Northwest 326 375 32,000  Level Salt Lake Center
Sun 11:54:49 PM 43.4792 -107.7122 329° Northwest 321 369 32,000  Level Salt Lake Center
Sun 11:55:50 PM 43.5544 -107.7783 328° Northwest 321 369 32,000 -934 Level Salt Lake Center
Sun 11:56:51 PM 43.6331 -107.8458 328° Northwest 330 380 30,100 -1,918 Descending Salt Lake Center
Sun 11:57:52 PM 43.7153 -107.9172 328° Northwest 344 396 28,100 -1,967 Descending Salt Lake Center
Sun 11:58:53 PM 43.7947 -107.9867 328° Northwest 341 392 26,100 -1,967 Descending Salt Lake Center
Sun 11:59:54 PM 43.8742 -108.0550 328° Northwest 337 388 24,100 -1,918 Descending Salt Lake Center
Mon 12:00:55 AM 43.9517 -108.1208 329° Northwest 328 377 22,200 -1,770 Descending Salt Lake Center
Mon 12:01:56 AM 44.0244 -108.1853 328° Northwest 315 362 20,500 -1,672 Descending Salt Lake Center
Mon 12:02:57 AM 44.0942 -108.2467 328° Northwest 306 352 18,800 -1,574 Descending Salt Lake Center
Mon 12:03:58 AM 44.1650 -108.3081 328° Northwest 302 348 17,300 -1,574 Descending Salt Lake Center
Mon 12:04:59 AM 44.2344 -108.3686 328° Northwest 299 344 15,600 -1,884 Descending Salt Lake Center
Mon 12:05:59 AM 44.3125 -108.4375 328° Northwest 288 331 13,500 -1,587 Descending Salt Lake Center
Mon 12:07:00 AM 44.3728 -108.4911 328° Northwest 275 316 12,400 -1,033 Descending Salt Lake Center
Mon 12:08:01 AM 44.4322 -108.5428 328° Northwest 263 303 11,400 -984 Descending Salt Lake Center
Mon 12:09:02 AM 44.4883 -108.5939 327° Northwest 253 291 10,400 -984 Descending Salt Lake Center
Mon 12:10:03 AM 44.5436 -108.6417 328° Northwest 244 281 9,400 -738 Descending Salt Lake Center
Mon 12:11:04 AM 44.5892 -108.6836 327° Northwest 224 258 8,900 -639 Descending Salt Lake Center
Mon 12:12:05 AM 44.6286 -108.7261 323° Northwest 201 231 8,100 -443 Descending Salt Lake Center
Mon 12:13:06 AM 44.6544 -108.7761 306° West 185 213 8,000 -295 Descending Salt Lake Center
Mon 12:14:07 AM 44.6244 -108.8408 237° Southwest 194 223 7,500 -246 Descending Salt Lake Center
Mon 12:15:08 AM 44.5956 -108.8931 232° Southwest 183 211 7,500 -443 Level Salt Lake Center
Mon 12:16:09 AM 44.5686 -108.9397 231° Southwest 170 196 6,600 -787 Descending Salt Lake Center
Mon 12:17:10 AM 44.5403 -108.9881 231° Southwest 160 184 5,900 -689 Descending Salt Lake Center

Login

Don't have an account? Register now (free) for customized features, flight alerts, and more!